sensor_id;sensor_type;location;lat;lon;timestamp;P1;durP1;ratioP1;P2;durP2;ratioP2
71606;SDS011;60641;53.556;9.914;2023-04-25T00:01:03;7.00;;;1.50;;
71606;SDS011;60641;53.556;9.914;2023-04-25T00:03:31;6.20;;;1.50;;
71606;SDS011;60641;53.556;9.914;2023-04-25T00:05:58;7.70;;;1.60;;
71606;SDS011;60641;53.556;9.914;2023-04-25T00:08:29;9.00;;;1.70;;
71606;SDS011;60641;53.556;9.914;2023-04-25T00:10:56;8.40;;;1.60;;
71606;SDS011;60641;53.556;9.914;2023-04-25T00:13:23;9.10;;;1.40;;
71606;SDS011;60641;53.556;9.914;2023-04-25T00:15:51;8.30;;;1.70;;
71606;SDS011;60641;53.556;9.914;2023-04-25T00:18:19;10.60;;;1.70;;
71606;SDS011;60641;53.556;9.914;2023-04-25T00:20:46;12.30;;;2.10;;
71606;SDS011;60641;53.556;9.914;2023-04-25T00:23:13;13.30;;;1.60;;
71606;SDS011;60641;53.556;9.914;2023-04-25T00:25:44;15.30;;;1.50;;
71606;SDS011;60641;53.556;9.914;2023-04-25T00:28:11;8.50;;;1.60;;
71606;SDS011;60641;53.556;9.914;2023-04-25T00:30:38;13.80;;;1.70;;
71606;SDS011;60641;53.556;9.914;2023-04-25T00:33:06;12.50;;;2.00;;
71606;SDS011;60641;53.556;9.914;2023-04-25T00:35:32;12.00;;;1.90;;
71606;SDS011;60641;53.556;9.914;2023-04-25T00:37:59;12.90;;;1.60;;
71606;SDS011;60641;53.556;9.914;2023-04-25T00:40:26;11.40;;;1.40;;
71606;SDS011;60641;53.556;9.914;2023-04-25T00:42:53;14.80;;;1.80;;
71606;SDS011;60641;53.556;9.914;2023-04-25T00:45:19;14.50;;;1.80;;
71606;SDS011;60641;53.556;9.914;2023-04-25T00:47:46;11.90;;;1.80;;
71606;SDS011;60641;53.556;9.914;2023-04-25T00:50:13;14.30;;;1.80;;
71606;SDS011;60641;53.556;9.914;2023-04-25T00:52:40;13.50;;;2.10;;
71606;SDS011;60641;53.556;9.914;2023-04-25T00:55:08;12.90;;;1.60;;
71606;SDS011;60641;53.556;9.914;2023-04-25T00:57:35;11.70;;;1.90;;
71606;SDS011;60641;53.556;9.914;2023-04-25T01:00:02;10.90;;;1.70;;
71606;SDS011;60641;53.556;9.914;2023-04-25T01:02:31;15.60;;;2.10;;
71606;SDS011;60641;53.556;9.914;2023-04-25T01:04:58;16.40;;;2.00;;
71606;SDS011;60641;53.556;9.914;2023-04-25T01:07:25;17.40;;;2.30;;
71606;SDS011;60641;53.556;9.914;2023-04-25T01:09:52;15.70;;;1.80;;
71606;SDS011;60641;53.556;9.914;2023-04-25T01:12:18;12.20;;;1.70;;
71606;SDS011;60641;53.556;9.914;2023-04-25T01:14:45;11.50;;;1.70;;
71606;SDS011;60641;53.556;9.914;2023-04-25T01:17:12;15.40;;;2.20;;
71606;SDS011;60641;53.556;9.914;2023-04-25T01:19:39;13.30;;;1.80;;
71606;SDS011;60641;53.556;9.914;2023-04-25T01:22:05;14.10;;;1.80;;
71606;SDS011;60641;53.556;9.914;2023-04-25T01:24:32;13.90;;;2.10;;
71606;SDS011;60641;53.556;9.914;2023-04-25T01:27:02;14.50;;;1.80;;
71606;SDS011;60641;53.556;9.914;2023-04-25T01:29:32;23.50;;;2.20;;
71606;SDS011;60641;53.556;9.914;2023-04-25T01:31:59;17.70;;;2.90;;
71606;SDS011;60641;53.556;9.914;2023-04-25T01:34:26;17.60;;;1.80;;
71606;SDS011;60641;53.556;9.914;2023-04-25T01:36:53;14.40;;;2.00;;
71606;SDS011;60641;53.556;9.914;2023-04-25T01:39:20;18.70;;;2.30;;
71606;SDS011;60641;53.556;9.914;2023-04-25T01:41:47;20.50;;;2.30;;
71606;SDS011;60641;53.556;9.914;2023-04-25T01:44:14;14.20;;;2.10;;
71606;SDS011;60641;53.556;9.914;2023-04-25T01:46:41;14.90;;;2.40;;
71606;SDS011;60641;53.556;9.914;2023-04-25T01:49:07;14.10;;;2.30;;
71606;SDS011;60641;53.556;9.914;2023-04-25T01:51:34;13.70;;;2.30;;
71606;SDS011;60641;53.556;9.914;2023-04-25T01:54:01;13.70;;;1.90;;
71606;SDS011;60641;53.556;9.914;2023-04-25T01:56:30;17.80;;;2.20;;
71606;SDS011;60641;53.556;9.914;2023-04-25T01:58:58;14.90;;;2.20;;
71606;SDS011;60641;53.556;9.914;2023-04-25T02:01:25;17.20;;;2.30;;
71606;SDS011;60641;53.556;9.914;2023-04-25T02:03:52;15.30;;;2.10;;
71606;SDS011;60641;53.556;9.914;2023-04-25T02:06:19;17.40;;;2.20;;
71606;SDS011;60641;53.556;9.914;2023-04-25T02:08:46;16.40;;;2.10;;
71606;SDS011;60641;53.556;9.914;2023-04-25T02:11:12;20.90;;;2.60;;
71606;SDS011;60641;53.556;9.914;2023-04-25T02:13:39;13.20;;;1.90;;
71606;SDS011;60641;53.556;9.914;2023-04-25T02:16:06;15.10;;;2.20;;
71606;SDS011;60641;53.556;9.914;2023-04-25T02:18:32;17.40;;;2.10;;
71606;SDS011;60641;53.556;9.914;2023-04-25T02:20:59;14.40;;;1.90;;
71606;SDS011;60641;53.556;9.914;2023-04-25T02:23:27;14.00;;;2.10;;
71606;SDS011;60641;53.556;9.914;2023-04-25T02:25:54;11.70;;;1.60;;
71606;SDS011;60641;53.556;9.914;2023-04-25T02:28:23;14.40;;;1.70;;
71606;SDS011;60641;53.556;9.914;2023-04-25T02:30:51;13.00;;;2.00;;
71606;SDS011;60641;53.556;9.914;2023-04-25T02:33:18;15.70;;;2.10;;
71606;SDS011;60641;53.556;9.914;2023-04-25T02:35:44;15.60;;;1.90;;
71606;SDS011;60641;53.556;9.914;2023-04-25T02:38:11;12.40;;;1.80;;
71606;SDS011;60641;53.556;9.914;2023-04-25T02:40:37;15.40;;;2.20;;
71606;SDS011;60641;53.556;9.914;2023-04-25T02:43:04;18.90;;;2.00;;
71606;SDS011;60641;53.556;9.914;2023-04-25T02:45:30;11.60;;;2.00;;
71606;SDS011;60641;53.556;9.914;2023-04-25T02:47:57;14.90;;;2.70;;
71606;SDS011;60641;53.556;9.914;2023-04-25T02:50:23;14.70;;;2.20;;
71606;SDS011;60641;53.556;9.914;2023-04-25T02:52:50;14.60;;;1.90;;
71606;SDS011;60641;53.556;9.914;2023-04-25T02:55:17;16.10;;;2.20;;
71606;SDS011;60641;53.556;9.914;2023-04-25T02:57:43;16.80;;;1.80;;
71606;SDS011;60641;53.556;9.914;2023-04-25T03:00:10;13.40;;;2.20;;
71606;SDS011;60641;53.556;9.914;2023-04-25T03:02:37;23.50;;;2.40;;
71606;SDS011;60641;53.556;9.914;2023-04-25T03:05:04;15.30;;;1.90;;
71606;SDS011;60641;53.556;9.914;2023-04-25T03:07:30;15.90;;;1.90;;
71606;SDS011;60641;53.556;9.914;2023-04-25T03:09:57;14.50;;;2.20;;
71606;SDS011;60641;53.556;9.914;2023-04-25T03:12:23;14.20;;;1.90;;
71606;SDS011;60641;53.556;9.914;2023-04-25T03:14:50;20.20;;;1.90;;
71606;SDS011;60641;53.556;9.914;2023-04-25T03:17:16;12.60;;;1.90;;
71606;SDS011;60641;53.556;9.914;2023-04-25T03:19:42;11.30;;;1.60;;
71606;SDS011;60641;53.556;9.914;2023-04-25T03:22:09;12.70;;;1.90;;
71606;SDS011;60641;53.556;9.914;2023-04-25T03:24:35;16.20;;;2.90;;
71606;SDS011;60641;53.556;9.914;2023-04-25T03:27:03;11.60;;;2.50;;
71606;SDS011;60641;53.556;9.914;2023-04-25T03:29:29;13.00;;;2.20;;
71606;SDS011;60641;53.556;9.914;2023-04-25T03:31:56;11.60;;;2.10;;
71606;SDS011;60641;53.556;9.914;2023-04-25T03:34:22;11.80;;;2.20;;
71606;SDS011;60641;53.556;9.914;2023-04-25T03:36:50;18.50;;;1.90;;
71606;SDS011;60641;53.556;9.914;2023-04-25T03:39:16;13.10;;;2.20;;
71606;SDS011;60641;53.556;9.914;2023-04-25T03:41:43;13.40;;;1.70;;
71606;SDS011;60641;53.556;9.914;2023-04-25T03:44:09;13.40;;;1.70;;
71606;SDS011;60641;53.556;9.914;2023-04-25T03:46:36;13.10;;;1.80;;
71606;SDS011;60641;53.556;9.914;2023-04-25T03:49:02;15.00;;;2.40;;
71606;SDS011;60641;53.556;9.914;2023-04-25T03:51:29;17.20;;;2.10;;
71606;SDS011;60641;53.556;9.914;2023-04-25T03:53:56;12.80;;;1.40;;
71606;SDS011;60641;53.556;9.914;2023-04-25T03:56:23;10.80;;;1.80;;
71606;SDS011;60641;53.556;9.914;2023-04-25T03:58:50;14.90;;;2.00;;
71606;SDS011;60641;53.556;9.914;2023-04-25T04:01:16;13.00;;;1.70;;
71606;SDS011;60641;53.556;9.914;2023-04-25T04:03:42;12.50;;;1.80;;
71606;SDS011;60641;53.556;9.914;2023-04-25T04:06:09;11.70;;;1.50;;
71606;SDS011;60641;53.556;9.914;2023-04-25T04:08:36;11.20;;;1.60;;
71606;SDS011;60641;53.556;9.914;2023-04-25T04:11:03;18.20;;;2.00;;
71606;SDS011;60641;53.556;9.914;2023-04-25T04:13:29;15.10;;;2.00;;
71606;SDS011;60641;53.556;9.914;2023-04-25T04:15:56;11.80;;;1.90;;
71606;SDS011;60641;53.556;9.914;2023-04-25T04:18:24;10.70;;;1.70;;
71606;SDS011;60641;53.556;9.914;2023-04-25T04:20:50;10.90;;;1.70;;
71606;SDS011;60641;53.556;9.914;2023-04-25T04:23:17;9.80;;;1.60;;
71606;SDS011;60641;53.556;9.914;2023-04-25T04:25:43;11.20;;;1.60;;
71606;SDS011;60641;53.556;9.914;2023-04-25T04:28:09;17.00;;;1.70;;
71606;SDS011;60641;53.556;9.914;2023-04-25T04:30:37;11.70;;;2.00;;
71606;SDS011;60641;53.556;9.914;2023-04-25T04:33:05;8.80;;;1.60;;
71606;SDS011;60641;53.556;9.914;2023-04-25T04:35:32;10.30;;;1.80;;
71606;SDS011;60641;53.556;9.914;2023-04-25T04:37:58;12.10;;;1.90;;
71606;SDS011;60641;53.556;9.914;2023-04-25T04:40:24;10.40;;;1.60;;
71606;SDS011;60641;53.556;9.914;2023-04-25T04:42:51;14.00;;;1.80;;
71606;SDS011;60641;53.556;9.914;2023-04-25T04:45:19;14.80;;;1.90;;
71606;SDS011;60641;53.556;9.914;2023-04-25T04:47:46;15.50;;;2.10;;
71606;SDS011;60641;53.556;9.914;2023-04-25T04:50:14;17.80;;;2.20;;
71606;SDS011;60641;53.556;9.914;2023-04-25T04:52:42;11.70;;;1.80;;
71606;SDS011;60641;53.556;9.914;2023-04-25T04:55:08;18.80;;;2.30;;
71606;SDS011;60641;53.556;9.914;2023-04-25T04:57:35;13.90;;;2.00;;
71606;SDS011;60641;53.556;9.914;2023-04-25T05:00:02;16.60;;;1.70;;
71606;SDS011;60641;53.556;9.914;2023-04-25T05:02:31;10.90;;;1.40;;
71606;SDS011;60641;53.556;9.914;2023-04-25T05:04:57;12.10;;;1.70;;
71606;SDS011;60641;53.556;9.914;2023-04-25T05:07:24;13.80;;;1.70;;
71606;SDS011;60641;53.556;9.914;2023-04-25T05:09:50;13.40;;;1.70;;
71606;SDS011;60641;53.556;9.914;2023-04-25T05:12:17;12.40;;;1.80;;
71606;SDS011;60641;53.556;9.914;2023-04-25T05:14:43;8.50;;;2.00;;
71606;SDS011;60641;53.556;9.914;2023-04-25T05:17:10;15.30;;;1.70;;
71606;SDS011;60641;53.556;9.914;2023-04-25T05:19:36;9.50;;;1.40;;
71606;SDS011;60641;53.556;9.914;2023-04-25T05:22:04;13.30;;;1.80;;
71606;SDS011;60641;53.556;9.914;2023-04-25T05:24:30;10.90;;;1.40;;
71606;SDS011;60641;53.556;9.914;2023-04-25T05:26:57;14.40;;;2.00;;
71606;SDS011;60641;53.556;9.914;2023-04-25T05:29:23;11.60;;;1.90;;
71606;SDS011;60641;53.556;9.914;2023-04-25T05:31:50;13.20;;;1.60;;
71606;SDS011;60641;53.556;9.914;2023-04-25T05:34:16;11.10;;;1.80;;
71606;SDS011;60641;53.556;9.914;2023-04-25T05:36:43;12.80;;;1.80;;
71606;SDS011;60641;53.556;9.914;2023-04-25T05:39:10;12.10;;;1.60;;
71606;SDS011;60641;53.556;9.914;2023-04-25T05:41:36;14.20;;;1.70;;
71606;SDS011;60641;53.556;9.914;2023-04-25T05:44:03;13.10;;;1.70;;
71606;SDS011;60641;53.556;9.914;2023-04-25T05:46:29;11.80;;;1.60;;
71606;SDS011;60641;53.556;9.914;2023-04-25T05:48:56;14.00;;;2.20;;
71606;SDS011;60641;53.556;9.914;2023-04-25T05:51:22;15.20;;;2.20;;
71606;SDS011;60641;53.556;9.914;2023-04-25T05:53:49;9.80;;;1.80;;
71606;SDS011;60641;53.556;9.914;2023-04-25T05:56:16;12.40;;;1.80;;
71606;SDS011;60641;53.556;9.914;2023-04-25T05:58:42;10.80;;;2.40;;
71606;SDS011;60641;53.556;9.914;2023-04-25T06:01:09;11.80;;;1.60;;
71606;SDS011;60641;53.556;9.914;2023-04-25T06:03:35;11.70;;;1.50;;
71606;SDS011;60641;53.556;9.914;2023-04-25T06:06:04;13.20;;;1.80;;
71606;SDS011;60641;53.556;9.914;2023-04-25T06:08:31;13.70;;;1.70;;
71606;SDS011;60641;53.556;9.914;2023-04-25T06:10:58;9.60;;;1.60;;
71606;SDS011;60641;53.556;9.914;2023-04-25T06:13:24;11.30;;;1.50;;
71606;SDS011;60641;53.556;9.914;2023-04-25T06:15:51;10.30;;;1.40;;
71606;SDS011;60641;53.556;9.914;2023-04-25T06:18:17;10.00;;;1.70;;
71606;SDS011;60641;53.556;9.914;2023-04-25T06:20:44;13.10;;;1.90;;
71606;SDS011;60641;53.556;9.914;2023-04-25T06:23:11;11.10;;;1.60;;
71606;SDS011;60641;53.556;9.914;2023-04-25T06:25:37;8.40;;;1.40;;
71606;SDS011;60641;53.556;9.914;2023-04-25T06:28:03;10.20;;;1.20;;
71606;SDS011;60641;53.556;9.914;2023-04-25T06:30:30;9.70;;;1.80;;
71606;SDS011;60641;53.556;9.914;2023-04-25T06:32:57;8.60;;;1.60;;
71606;SDS011;60641;53.556;9.914;2023-04-25T06:35:23;7.50;;;1.00;;
71606;SDS011;60641;53.556;9.914;2023-04-25T06:37:49;8.30;;;1.20;;
71606;SDS011;60641;53.556;9.914;2023-04-25T06:40:16;9.30;;;1.50;;
71606;SDS011;60641;53.556;9.914;2023-04-25T06:42:43;12.10;;;1.80;;
71606;SDS011;60641;53.556;9.914;2023-04-25T06:45:10;9.80;;;1.20;;
71606;SDS011;60641;53.556;9.914;2023-04-25T06:47:36;11.70;;;1.70;;
71606;SDS011;60641;53.556;9.914;2023-04-25T06:50:03;10.30;;;1.50;;
71606;SDS011;60641;53.556;9.914;2023-04-25T06:52:30;9.30;;;1.40;;
71606;SDS011;60641;53.556;9.914;2023-04-25T06:54:56;12.70;;;1.50;;
71606;SDS011;60641;53.556;9.914;2023-04-25T06:57:23;8.20;;;1.10;;
71606;SDS011;60641;53.556;9.914;2023-04-25T06:59:49;10.00;;;1.30;;
71606;SDS011;60641;53.556;9.914;2023-04-25T07:02:16;10.90;;;1.20;;
71606;SDS011;60641;53.556;9.914;2023-04-25T07:04:42;11.90;;;1.30;;
71606;SDS011;60641;53.556;9.914;2023-04-25T07:07:09;9.00;;;1.30;;
71606;SDS011;60641;53.556;9.914;2023-04-25T07:09:35;8.30;;;1.10;;
71606;SDS011;60641;53.556;9.914;2023-04-25T07:12:02;12.50;;;1.20;;
71606;SDS011;60641;53.556;9.914;2023-04-25T07:14:29;9.90;;;1.80;;
71606;SDS011;60641;53.556;9.914;2023-04-25T07:16:55;12.20;;;2.20;;
71606;SDS011;60641;53.556;9.914;2023-04-25T07:19:23;8.90;;;1.40;;
71606;SDS011;60641;53.556;9.914;2023-04-25T07:21:52;11.60;;;1.50;;
71606;SDS011;60641;53.556;9.914;2023-04-25T07:24:19;13.00;;;1.50;;
71606;SDS011;60641;53.556;9.914;2023-04-25T07:26:45;9.50;;;1.80;;
71606;SDS011;60641;53.556;9.914;2023-04-25T07:29:12;8.10;;;1.10;;
71606;SDS011;60641;53.556;9.914;2023-04-25T07:31:39;13.00;;;1.40;;
71606;SDS011;60641;53.556;9.914;2023-04-25T07:34:05;11.30;;;1.50;;
71606;SDS011;60641;53.556;9.914;2023-04-25T07:36:32;9.20;;;1.30;;
71606;SDS011;60641;53.556;9.914;2023-04-25T07:38:58;10.80;;;1.30;;
71606;SDS011;60641;53.556;9.914;2023-04-25T07:41:25;7.30;;;1.20;;
71606;SDS011;60641;53.556;9.914;2023-04-25T07:43:51;9.50;;;1.50;;
71606;SDS011;60641;53.556;9.914;2023-04-25T07:46:17;5.70;;;1.00;;
71606;SDS011;60641;53.556;9.914;2023-04-25T07:48:45;6.10;;;0.80;;
71606;SDS011;60641;53.556;9.914;2023-04-25T07:51:11;8.10;;;0.90;;
71606;SDS011;60641;53.556;9.914;2023-04-25T07:53:37;12.30;;;1.10;;
71606;SDS011;60641;53.556;9.914;2023-04-25T07:56:04;9.70;;;1.30;;
71606;SDS011;60641;53.556;9.914;2023-04-25T07:58:31;9.60;;;1.40;;
71606;SDS011;60641;53.556;9.914;2023-04-25T08:00:57;6.70;;;1.10;;
71606;SDS011;60641;53.556;9.914;2023-04-25T08:03:24;9.20;;;1.10;;
71606;SDS011;60641;53.556;9.914;2023-04-25T08:05:50;10.50;;;1.30;;
71606;SDS011;60641;53.556;9.914;2023-04-25T08:08:17;7.50;;;1.10;;
71606;SDS011;60641;53.556;9.914;2023-04-25T08:10:43;4.50;;;0.80;;
71606;SDS011;60641;53.556;9.914;2023-04-25T08:13:10;9.60;;;1.20;;
71606;SDS011;60641;53.556;9.914;2023-04-25T08:15:36;8.60;;;1.30;;
71606;SDS011;60641;53.556;9.914;2023-04-25T08:18:02;10.20;;;1.50;;
71606;SDS011;60641;53.556;9.914;2023-04-25T08:20:29;8.30;;;1.10;;
71606;SDS011;60641;53.556;9.914;2023-04-25T08:22:56;10.20;;;1.30;;
71606;SDS011;60641;53.556;9.914;2023-04-25T08:25:22;7.80;;;1.00;;
71606;SDS011;60641;53.556;9.914;2023-04-25T08:27:49;9.00;;;1.00;;
71606;SDS011;60641;53.556;9.914;2023-04-25T08:30:15;10.70;;;0.90;;
71606;SDS011;60641;53.556;9.914;2023-04-25T08:32:42;6.80;;;1.00;;
71606;SDS011;60641;53.556;9.914;2023-04-25T08:35:08;8.80;;;1.30;;
71606;SDS011;60641;53.556;9.914;2023-04-25T08:37:35;4.70;;;0.70;;
71606;SDS011;60641;53.556;9.914;2023-04-25T08:40:03;7.30;;;1.20;;
71606;SDS011;60641;53.556;9.914;2023-04-25T08:42:33;8.50;;;1.10;;
71606;SDS011;60641;53.556;9.914;2023-04-25T08:45:03;8.50;;;0.80;;
71606;SDS011;60641;53.556;9.914;2023-04-25T08:47:30;7.40;;;1.10;;
71606;SDS011;60641;53.556;9.914;2023-04-25T08:49:57;8.40;;;0.90;;
71606;SDS011;60641;53.556;9.914;2023-04-25T08:52:25;10.40;;;1.10;;
71606;SDS011;60641;53.556;9.914;2023-04-25T08:54:54;5.90;;;1.00;;
71606;SDS011;60641;53.556;9.914;2023-04-25T08:57:21;9.30;;;0.80;;
71606;SDS011;60641;53.556;9.914;2023-04-25T08:59:48;9.40;;;1.10;;
71606;SDS011;60641;53.556;9.914;2023-04-25T09:02:15;8.50;;;0.80;;
71606;SDS011;60641;53.556;9.914;2023-04-25T09:04:43;4.80;;;0.60;;
71606;SDS011;60641;53.556;9.914;2023-04-25T09:07:10;5.30;;;0.70;;
71606;SDS011;60641;53.556;9.914;2023-04-25T09:09:37;5.30;;;0.70;;
71606;SDS011;60641;53.556;9.914;2023-04-25T09:12:04;5.50;;;0.70;;
71606;SDS011;60641;53.556;9.914;2023-04-25T09:14:31;6.50;;;0.80;;
71606;SDS011;60641;53.556;9.914;2023-04-25T09:17:01;9.50;;;0.70;;
71606;SDS011;60641;53.556;9.914;2023-04-25T09:19:29;7.00;;;0.90;;
71606;SDS011;60641;53.556;9.914;2023-04-25T09:21:58;7.70;;;0.90;;
71606;SDS011;60641;53.556;9.914;2023-04-25T09:24:32;6.40;;;0.80;;
71606;SDS011;60641;53.556;9.914;2023-04-25T09:26:59;8.50;;;1.30;;
71606;SDS011;60641;53.556;9.914;2023-04-25T09:29:29;8.70;;;1.00;;
71606;SDS011;60641;53.556;9.914;2023-04-25T09:34:47;6.30;;;0.70;;
71606;SDS011;60641;53.556;9.914;2023-04-25T09:39:47;5.90;;;0.80;;
71606;SDS011;60641;53.556;9.914;2023-04-25T09:42:15;7.50;;;0.90;;
71606;SDS011;60641;53.556;9.914;2023-04-25T09:44:45;7.50;;;1.00;;
71606;SDS011;60641;53.556;9.914;2023-04-25T09:47:13;6.40;;;0.80;;
71606;SDS011;60641;53.556;9.914;2023-04-25T09:49:41;7.00;;;0.70;;
71606;SDS011;60641;53.556;9.914;2023-04-25T09:52:09;6.70;;;0.70;;
71606;SDS011;60641;53.556;9.914;2023-04-25T09:54:39;8.50;;;0.50;;
71606;SDS011;60641;53.556;9.914;2023-04-25T09:57:10;5.20;;;0.90;;
71606;SDS011;60641;53.556;9.914;2023-04-25T09:59:39;4.00;;;0.80;;
71606;SDS011;60641;53.556;9.914;2023-04-25T10:02:08;7.70;;;1.00;;
71606;SDS011;60641;53.556;9.914;2023-04-25T10:04:38;6.60;;;0.90;;
71606;SDS011;60641;53.556;9.914;2023-04-25T10:07:05;5.60;;;0.90;;
71606;SDS011;60641;53.556;9.914;2023-04-25T10:09:32;8.40;;;0.90;;
71606;SDS011;60641;53.556;9.914;2023-04-25T10:12:02;3.60;;;0.60;;
71606;SDS011;60641;53.556;9.914;2023-04-25T10:14:30;4.90;;;0.80;;
71606;SDS011;60641;53.556;9.914;2023-04-25T10:16:58;8.40;;;0.70;;
71606;SDS011;60641;53.556;9.914;2023-04-25T10:19:25;3.90;;;0.60;;
71606;SDS011;60641;53.556;9.914;2023-04-25T10:21:54;5.60;;;0.70;;
71606;SDS011;60641;53.556;9.914;2023-04-25T10:24:24;8.10;;;0.80;;
71606;SDS011;60641;53.556;9.914;2023-04-25T10:26:51;8.60;;;1.10;;
71606;SDS011;60641;53.556;9.914;2023-04-25T10:49:49;10.20;;;1.10;;
71606;SDS011;60641;53.556;9.914;2023-04-25T10:52:26;10.60;;;1.10;;
71606;SDS011;60641;53.556;9.914;2023-04-25T10:54:55;5.30;;;0.80;;
71606;SDS011;60641;53.556;9.914;2023-04-25T10:57:36;7.10;;;0.70;;
71606;SDS011;60641;53.556;9.914;2023-04-25T11:00:19;7.00;;;1.00;;
71606;SDS011;60641;53.556;9.914;2023-04-25T11:02:52;6.30;;;0.70;;
71606;SDS011;60641;53.556;9.914;2023-04-25T11:05:20;9.80;;;1.10;;
71606;SDS011;60641;53.556;9.914;2023-04-25T11:07:49;11.00;;;1.00;;
71606;SDS011;60641;53.556;9.914;2023-04-25T11:10:26;7.20;;;0.90;;
71606;SDS011;60641;53.556;9.914;2023-04-25T11:12:54;8.60;;;1.00;;
71606;SDS011;60641;53.556;9.914;2023-04-25T11:15:21;6.30;;;1.00;;
71606;SDS011;60641;53.556;9.914;2023-04-25T11:17:48;8.90;;;1.00;;
71606;SDS011;60641;53.556;9.914;2023-04-25T11:20:17;7.30;;;1.20;;
71606;SDS011;60641;53.556;9.914;2023-04-25T11:22:44;9.90;;;1.10;;
71606;SDS011;60641;53.556;9.914;2023-04-25T11:25:12;7.50;;;1.00;;
71606;SDS011;60641;53.556;9.914;2023-04-25T11:27:55;5.30;;;0.80;;
71606;SDS011;60641;53.556;9.914;2023-04-25T11:30:24;9.40;;;1.20;;
71606;SDS011;60641;53.556;9.914;2023-04-25T11:32:52;5.70;;;0.90;;
71606;SDS011;60641;53.556;9.914;2023-04-25T11:35:19;3.60;;;0.50;;
71606;SDS011;60641;53.556;9.914;2023-04-25T11:37:46;4.80;;;0.50;;
71606;SDS011;60641;53.556;9.914;2023-04-25T11:40:13;2.80;;;0.40;;
71606;SDS011;60641;53.556;9.914;2023-04-25T11:42:44;2.90;;;0.50;;
71606;SDS011;60641;53.556;9.914;2023-04-25T11:45:13;2.70;;;0.30;;
71606;SDS011;60641;53.556;9.914;2023-04-25T11:47:39;4.00;;;0.60;;
71606;SDS011;60641;53.556;9.914;2023-04-25T11:50:07;3.70;;;0.60;;
71606;SDS011;60641;53.556;9.914;2023-04-25T11:52:37;5.60;;;0.90;;
71606;SDS011;60641;53.556;9.914;2023-04-25T11:55:18;4.40;;;0.70;;
71606;SDS011;60641;53.556;9.914;2023-04-25T11:57:47;6.20;;;0.70;;
71606;SDS011;60641;53.556;9.914;2023-04-25T12:00:16;5.10;;;0.60;;
71606;SDS011;60641;53.556;9.914;2023-04-25T12:02:45;10.60;;;1.00;;
71606;SDS011;60641;53.556;9.914;2023-04-25T12:05:13;5.30;;;1.10;;
71606;SDS011;60641;53.556;9.914;2023-04-25T12:07:42;7.20;;;0.80;;
71606;SDS011;60641;53.556;9.914;2023-04-25T12:10:12;6.80;;;0.70;;
71606;SDS011;60641;53.556;9.914;2023-04-25T12:12:43;4.00;;;0.60;;
71606;SDS011;60641;53.556;9.914;2023-04-25T12:15:15;5.80;;;0.80;;
71606;SDS011;60641;53.556;9.914;2023-04-25T12:17:49;7.10;;;0.80;;
71606;SDS011;60641;53.556;9.914;2023-04-25T12:20:20;4.70;;;0.70;;
71606;SDS011;60641;53.556;9.914;2023-04-25T12:22:49;6.30;;;0.60;;
71606;SDS011;60641;53.556;9.914;2023-04-25T12:25:36;5.50;;;0.70;;
71606;SDS011;60641;53.556;9.914;2023-04-25T12:28:14;5.40;;;0.60;;
71606;SDS011;60641;53.556;9.914;2023-04-25T12:31:04;6.10;;;0.80;;
71606;SDS011;60641;53.556;9.914;2023-04-25T12:33:33;5.30;;;0.70;;
71606;SDS011;60641;53.556;9.914;2023-04-25T12:36:01;8.50;;;0.90;;
71606;SDS011;60641;53.556;9.914;2023-04-25T12:38:37;7.10;;;0.90;;
71606;SDS011;60641;53.556;9.914;2023-04-25T12:41:05;7.50;;;0.70;;
71606;SDS011;60641;53.556;9.914;2023-04-25T12:43:32;5.90;;;0.90;;
71606;SDS011;60641;53.556;9.914;2023-04-25T12:45:58;6.60;;;1.00;;
71606;SDS011;60641;53.556;9.914;2023-04-25T12:48:25;5.20;;;0.80;;
71606;SDS011;60641;53.556;9.914;2023-04-25T12:50:52;7.50;;;0.70;;
71606;SDS011;60641;53.556;9.914;2023-04-25T12:53:19;3.50;;;0.70;;
71606;SDS011;60641;53.556;9.914;2023-04-25T12:55:47;12.10;;;1.10;;
71606;SDS011;60641;53.556;9.914;2023-04-25T12:58:14;6.30;;;0.80;;
71606;SDS011;60641;53.556;9.914;2023-04-25T13:00:41;10.30;;;1.00;;
71606;SDS011;60641;53.556;9.914;2023-04-25T13:03:09;5.20;;;0.70;;
71606;SDS011;60641;53.556;9.914;2023-04-25T13:05:37;6.70;;;0.90;;
71606;SDS011;60641;53.556;9.914;2023-04-25T13:08:04;7.90;;;1.00;;
71606;SDS011;60641;53.556;9.914;2023-04-25T13:10:31;6.00;;;0.70;;
71606;SDS011;60641;53.556;9.914;2023-04-25T13:12:59;7.60;;;1.10;;
71606;SDS011;60641;53.556;9.914;2023-04-25T13:15:27;5.40;;;0.80;;
71606;SDS011;60641;53.556;9.914;2023-04-25T13:17:53;6.60;;;0.70;;
71606;SDS011;60641;53.556;9.914;2023-04-25T13:20:19;7.10;;;0.90;;
71606;SDS011;60641;53.556;9.914;2023-04-25T13:22:48;5.50;;;0.60;;
71606;SDS011;60641;53.556;9.914;2023-04-25T13:25:14;4.50;;;0.70;;
71606;SDS011;60641;53.556;9.914;2023-04-25T13:27:42;7.30;;;0.80;;
71606;SDS011;60641;53.556;9.914;2023-04-25T13:30:10;3.10;;;0.60;;
71606;SDS011;60641;53.556;9.914;2023-04-25T13:32:37;3.00;;;0.60;;
71606;SDS011;60641;53.556;9.914;2023-04-25T13:35:04;5.40;;;0.90;;
71606;SDS011;60641;53.556;9.914;2023-04-25T13:37:31;4.40;;;0.60;;
71606;SDS011;60641;53.556;9.914;2023-04-25T13:40:00;6.20;;;1.00;;
71606;SDS011;60641;53.556;9.914;2023-04-25T13:42:27;8.40;;;0.90;;
71606;SDS011;60641;53.556;9.914;2023-04-25T13:44:54;6.50;;;1.00;;
71606;SDS011;60641;53.556;9.914;2023-04-25T13:47:21;7.30;;;0.90;;
71606;SDS011;60641;53.556;9.914;2023-04-25T13:49:49;4.20;;;0.80;;
71606;SDS011;60641;53.556;9.914;2023-04-25T13:52:16;4.30;;;0.70;;
71606;SDS011;60641;53.556;9.914;2023-04-25T13:54:43;5.20;;;0.90;;
71606;SDS011;60641;53.556;9.914;2023-04-25T13:57:09;6.00;;;1.00;;
71606;SDS011;60641;53.556;9.914;2023-04-25T13:59:37;7.60;;;0.90;;
71606;SDS011;60641;53.556;9.914;2023-04-25T14:02:04;9.10;;;1.50;;
71606;SDS011;60641;53.556;9.914;2023-04-25T14:04:30;6.00;;;0.80;;
71606;SDS011;60641;53.556;9.914;2023-04-25T14:06:57;8.10;;;0.90;;
71606;SDS011;60641;53.556;9.914;2023-04-25T14:09:23;9.30;;;0.80;;
71606;SDS011;60641;53.556;9.914;2023-04-25T14:11:51;7.10;;;0.90;;
71606;SDS011;60641;53.556;9.914;2023-04-25T14:14:18;13.70;;;1.00;;
71606;SDS011;60641;53.556;9.914;2023-04-25T14:16:46;6.70;;;1.00;;
71606;SDS011;60641;53.556;9.914;2023-04-25T14:19:14;5.50;;;1.00;;
71606;SDS011;60641;53.556;9.914;2023-04-25T14:21:41;9.10;;;1.10;;
71606;SDS011;60641;53.556;9.914;2023-04-25T14:24:08;6.00;;;0.80;;
71606;SDS011;60641;53.556;9.914;2023-04-25T14:26:35;8.50;;;1.00;;
71606;SDS011;60641;53.556;9.914;2023-04-25T14:29:03;8.00;;;0.90;;
71606;SDS011;60641;53.556;9.914;2023-04-25T14:31:31;7.30;;;0.80;;
71606;SDS011;60641;53.556;9.914;2023-04-25T14:33:57;6.80;;;0.80;;
71606;SDS011;60641;53.556;9.914;2023-04-25T14:36:24;9.80;;;1.00;;
71606;SDS011;60641;53.556;9.914;2023-04-25T14:38:52;6.30;;;0.80;;
71606;SDS011;60641;53.556;9.914;2023-04-25T14:41:18;8.30;;;0.80;;
71606;SDS011;60641;53.556;9.914;2023-04-25T14:43:45;8.40;;;0.80;;
71606;SDS011;60641;53.556;9.914;2023-04-25T14:46:12;8.30;;;1.20;;
71606;SDS011;60641;53.556;9.914;2023-04-25T14:48:38;4.60;;;0.70;;
71606;SDS011;60641;53.556;9.914;2023-04-25T14:51:05;5.30;;;0.80;;
71606;SDS011;60641;53.556;9.914;2023-04-25T14:53:31;5.90;;;0.90;;
71606;SDS011;60641;53.556;9.914;2023-04-25T14:55:58;9.30;;;0.90;;
71606;SDS011;60641;53.556;9.914;2023-04-25T14:58:24;5.20;;;1.00;;
71606;SDS011;60641;53.556;9.914;2023-04-25T15:00:51;5.90;;;0.80;;
71606;SDS011;60641;53.556;9.914;2023-04-25T15:03:18;6.10;;;0.80;;
71606;SDS011;60641;53.556;9.914;2023-04-25T15:05:44;5.80;;;0.60;;
71606;SDS011;60641;53.556;9.914;2023-04-25T15:08:11;6.80;;;0.70;;